createdAt,value
2023-01-23T00:01:31.360Z,26.23
2023-01-23T00:03:59.305Z,26.25
2023-01-23T00:06:27.232Z,25.92
2023-01-23T00:08:56.851Z,26.48
2023-01-23T00:11:27.142Z,25.17
2023-01-23T00:13:55.771Z,25.17
2023-01-23T00:16:25.242Z,25.85
2023-01-23T00:18:53.024Z,24.33
2023-01-23T00:21:24.805Z,25.42
2023-01-23T00:23:54.684Z,25.45
2023-01-23T00:26:24.375Z,23.38
2023-01-23T00:28:52.454Z,24.60
2023-01-23T00:31:23.159Z,25.00
2023-01-23T00:33:55.091Z,26.13
2023-01-23T00:36:22.573Z,25.00
2023-01-23T00:38:50.061Z,25.80
2023-01-23T00:41:17.755Z,25.30
2023-01-23T00:43:47.110Z,25.80
2023-01-23T00:46:14.743Z,25.73
2023-01-23T00:48:42.226Z,25.15
2023-01-23T00:51:09.766Z,25.45
2023-01-23T00:53:37.271Z,26.38
2023-01-23T00:56:05.096Z,24.73
2023-01-23T00:58:32.521Z,24.90
2023-01-23T01:01:00.119Z,24.80
2023-01-23T01:03:27.763Z,25.40
2023-01-23T01:05:55.284Z,26.02
2023-01-23T01:08:22.706Z,25.60
2023-01-23T01:10:50.919Z,25.90
2023-01-23T01:13:21.462Z,25.08
2023-01-23T01:15:53.048Z,26.10
2023-01-23T01:18:21.553Z,26.00
2023-01-23T01:20:49.547Z,25.17
2023-01-23T01:23:17.445Z,26.27
2023-01-23T01:25:44.955Z,24.60
2023-01-23T01:28:15.011Z,24.88
2023-01-23T01:30:42.859Z,26.30
2023-01-23T01:33:11.142Z,24.23
2023-01-23T01:35:41.376Z,24.58
2023-01-23T01:38:09.454Z,24.08
2023-01-23T01:40:37.769Z,26.10
2023-01-23T01:43:15.996Z,23.92
2023-01-23T01:45:55.923Z,25.17
2023-01-23T01:48:30.776Z,26.52
2023-01-23T01:50:59.686Z,26.35
2023-01-23T01:53:28.818Z,25.35
2023-01-23T01:55:57.502Z,25.80
2023-01-23T01:58:25.614Z,25.38
2023-01-23T02:00:53.242Z,25.95
2023-01-23T02:03:20.866Z,24.13
2023-01-23T02:05:49.895Z,24.02
2023-01-23T02:08:41.994Z,25.38
2023-01-23T02:11:09.637Z,25.98
2023-01-23T02:13:39.824Z,24.50
2023-01-23T02:16:12.462Z,25.50
2023-01-23T02:18:44.688Z,25.45
2023-01-23T02:21:12.902Z,25.20
2023-01-23T02:23:58.241Z,26.58
2023-01-23T02:26:33.448Z,27.63
2023-01-23T02:29:01.335Z,24.17
2023-01-23T02:31:29.086Z,26.95
2023-01-23T02:33:58.362Z,25.70
2023-01-23T02:36:30.907Z,24.73
2023-01-23T02:39:03.787Z,26.88
2023-01-23T02:44:26.976Z,24.63
2023-01-23T02:46:59.590Z,24.42
2023-01-23T02:49:30.021Z,25.48
2023-01-23T02:51:58.156Z,24.80
2023-01-23T02:54:26.353Z,25.63
2023-01-23T02:56:53.985Z,25.48
2023-01-23T02:59:40.241Z,27.05
2023-01-23T03:02:08.206Z,27.10
2023-01-23T03:04:35.739Z,26.00
2023-01-23T03:07:03.302Z,26.67
2023-01-23T03:09:30.726Z,25.85
2023-01-23T03:11:58.411Z,26.08
2023-01-23T03:14:26.490Z,26.02
2023-01-23T03:16:55.457Z,27.60
2023-01-23T03:19:25.416Z,28.75
2023-01-23T03:22:01.913Z,25.70
2023-01-23T03:24:29.517Z,27.85
2023-01-23T03:26:57.044Z,27.15
2023-01-23T03:29:50.311Z,28.10
2023-01-23T03:34:45.638Z,25.83
2023-01-23T03:37:13.775Z,27.77
2023-01-23T03:39:59.814Z,27.40
2023-01-23T03:42:27.213Z,25.92
2023-01-23T03:44:54.656Z,27.40
2023-01-23T03:47:22.336Z,26.60
2023-01-23T03:49:49.751Z,28.23
2023-01-23T03:52:17.227Z,27.05
2023-01-23T03:54:44.789Z,26.38
2023-01-23T03:57:12.335Z,29.05
2023-01-23T03:59:39.840Z,28.00
2023-01-23T04:02:07.373Z,28.52
2023-01-23T04:04:36.590Z,26.75
2023-01-23T04:07:05.578Z,28.30
2023-01-23T04:09:33.079Z,28.13
2023-01-23T04:12:00.968Z,27.90
2023-01-23T04:14:37.367Z,29.08
2023-01-23T04:17:06.416Z,28.40
2023-01-23T04:19:36.315Z,26.98
2023-01-23T04:22:05.000Z,28.25
2023-01-23T04:24:32.490Z,26.38
2023-01-23T04:26:59.982Z,27.33
2023-01-23T04:29:27.833Z,28.67
2023-01-23T04:31:55.318Z,28.77
2023-01-23T04:34:22.948Z,28.35
2023-01-23T04:36:50.376Z,28.77
2023-01-23T04:39:17.909Z,28.52
2023-01-23T04:41:45.429Z,28.98
2023-01-23T04:44:21.735Z,29.17
2023-01-23T04:46:50.677Z,30.23
2023-01-23T04:49:19.565Z,28.40
2023-01-23T04:51:48.456Z,27.90
2023-01-23T04:54:16.505Z,28.15
2023-01-23T04:56:44.826Z,28.85
2023-01-23T04:59:12.751Z,29.58
2023-01-23T05:01:40.553Z,29.50
2023-01-23T05:04:08.027Z,28.67
2023-01-23T05:06:35.652Z,31.58
2023-01-23T05:09:03.059Z,29.70
2023-01-23T05:11:31.048Z,29.20
2023-01-23T05:13:58.507Z,31.17
2023-01-23T05:16:25.984Z,30.77
2023-01-23T05:18:53.437Z,30.00
2023-01-23T05:21:21.074Z,30.25
2023-01-23T05:23:48.427Z,31.25
2023-01-23T05:26:17.029Z,31.08
2023-01-23T05:28:44.669Z,31.33
2023-01-23T05:31:12.290Z,31.77
2023-01-23T05:33:40.574Z,31.08
2023-01-23T05:36:08.326Z,30.17
2023-01-23T05:38:36.052Z,31.98
2023-01-23T05:41:05.381Z,31.35
2023-01-23T05:43:33.405Z,30.60
2023-01-23T05:46:02.651Z,31.58
2023-01-23T05:48:30.263Z,32.17
2023-01-23T05:50:58.041Z,30.90
2023-01-23T05:53:25.634Z,31.02
2023-01-23T05:55:53.041Z,33.47
2023-01-23T05:58:20.587Z,30.80
2023-01-23T06:00:48.559Z,31.83
2023-01-23T06:03:17.213Z,31.35
2023-01-23T06:05:45.011Z,30.52
2023-01-23T06:08:12.653Z,32.25
2023-01-23T06:10:40.136Z,33.88
2023-01-23T06:13:07.695Z,32.60
2023-01-23T06:15:35.282Z,32.72
2023-01-23T06:18:02.936Z,33.63
2023-01-23T06:20:34.692Z,30.67
2023-01-23T06:23:02.152Z,34.15
2023-01-23T06:25:29.557Z,32.38
2023-01-23T06:27:57.051Z,33.42
2023-01-23T06:30:24.591Z,34.05
2023-01-23T06:32:52.072Z,32.88
2023-01-23T06:35:19.986Z,34.97
2023-01-23T06:37:50.002Z,34.75
2023-01-23T06:40:17.890Z,33.15
2023-01-23T06:42:46.324Z,33.03
2023-01-23T06:45:15.396Z,32.20
2023-01-23T06:47:42.849Z,33.92
2023-01-23T06:50:10.946Z,32.92
2023-01-23T06:52:41.825Z,33.70
2023-01-23T06:55:09.964Z,33.55
2023-01-23T06:57:37.358Z,31.08
2023-01-23T07:00:05.566Z,31.90
2023-01-23T07:02:39.433Z,33.33
2023-01-23T07:05:07.096Z,32.42
2023-01-23T07:07:34.604Z,33.35
2023-01-23T07:10:02.062Z,32.17
2023-01-23T07:12:29.609Z,33.40
2023-01-23T07:14:58.118Z,33.47
2023-01-23T07:17:25.760Z,35.13
2023-01-23T07:19:53.440Z,33.88
2023-01-23T07:22:21.728Z,33.38
2023-01-23T07:24:49.546Z,35.08
2023-01-23T07:27:17.079Z,33.63
2023-01-23T07:29:44.541Z,34.25
2023-01-23T07:32:12.014Z,34.80
2023-01-23T07:34:39.517Z,34.80
2023-01-23T07:37:06.903Z,35.17
2023-01-23T07:39:36.706Z,34.92
2023-01-23T07:42:06.692Z,33.40
2023-01-23T07:44:37.321Z,34.03
2023-01-23T07:47:04.782Z,36.42
2023-01-23T07:49:32.214Z,35.00
2023-01-23T07:51:59.613Z,34.55
2023-01-23T07:54:27.566Z,34.95
2023-01-23T07:56:55.139Z,33.75
2023-01-23T07:59:22.770Z,36.08
2023-01-23T08:01:52.522Z,37.03
2023-01-23T08:04:20.615Z,34.58
2023-01-23T08:06:48.481Z,35.47
2023-01-23T08:09:16.013Z,35.58
2023-01-23T08:11:43.436Z,35.40
2023-01-23T08:14:12.093Z,34.58
2023-01-23T08:16:39.614Z,34.97
2023-01-23T08:19:09.019Z,33.03
2023-01-23T08:21:36.767Z,36.60
2023-01-23T08:24:05.114Z,34.40
2023-01-23T08:26:33.517Z,35.22
2023-01-23T08:29:01.885Z,35.35
2023-01-23T08:31:29.423Z,35.55
2023-01-23T08:33:57.336Z,34.97
2023-01-23T08:36:24.866Z,34.85
2023-01-23T08:38:52.926Z,34.55
2023-01-23T08:41:20.430Z,34.63
2023-01-23T08:43:48.044Z,33.58
2023-01-23T08:46:15.503Z,34.50
2023-01-23T08:48:42.914Z,35.35
2023-01-23T08:51:13.060Z,34.63
2023-01-23T08:53:41.389Z,34.45
2023-01-23T08:56:17.042Z,36.88
2023-01-23T08:58:44.980Z,35.13
2023-01-23T09:01:20.521Z,33.95
2023-01-23T09:03:48.374Z,34.50
2023-01-23T09:06:18.114Z,33.95
2023-01-23T09:08:46.176Z,33.25
2023-01-23T09:11:14.292Z,34.20
2023-01-23T09:13:42.069Z,34.33
2023-01-23T09:16:10.085Z,34.45
2023-01-23T09:18:37.835Z,33.25
2023-01-23T09:21:10.309Z,34.40
2023-01-23T09:23:39.118Z,34.63
2023-01-23T09:26:09.147Z,33.85
2023-01-23T09:28:37.451Z,34.92
2023-01-23T09:31:10.053Z,34.42
2023-01-23T09:33:37.993Z,34.92
2023-01-23T09:36:06.081Z,33.25
2023-01-23T09:38:34.528Z,34.63
2023-01-23T09:41:09.807Z,35.17
2023-01-23T09:43:42.111Z,34.13
2023-01-23T09:46:12.686Z,34.58
2023-01-23T09:48:43.811Z,34.30
2023-01-23T09:51:22.532Z,34.65
2023-01-23T09:53:50.142Z,34.80
2023-01-23T09:56:30.584Z,34.42
2023-01-23T09:59:34.769Z,35.28
2023-01-23T10:02:02.645Z,34.55
2023-01-23T10:04:31.530Z,32.88
2023-01-23T10:07:35.614Z,32.97
2023-01-23T10:10:20.274Z,33.83
2023-01-23T10:12:55.003Z,34.63
2023-01-23T10:15:28.741Z,33.47
2023-01-23T10:18:16.410Z,32.85
2023-01-23T10:21:02.803Z,33.30
2023-01-23T10:23:34.753Z,33.15
2023-01-23T10:26:04.464Z,32.73
2023-01-23T10:28:42.075Z,32.05
2023-01-23T10:31:30.677Z,32.45
2023-01-23T10:34:10.327Z,32.72
2023-01-23T10:36:54.045Z,31.60
2023-01-23T10:39:32.229Z,32.53
2023-01-23T10:42:02.487Z,31.45
2023-01-23T10:44:30.521Z,30.63
2023-01-23T10:47:01.451Z,30.88
2023-01-23T10:49:39.098Z,32.55
2023-01-23T10:52:31.087Z,31.73
2023-01-23T10:54:58.564Z,30.58
2023-01-23T10:57:28.209Z,32.67
2023-01-23T11:00:05.173Z,31.48
2023-01-23T11:02:37.379Z,30.52
2023-01-23T11:05:53.189Z,30.95
2023-01-23T11:08:41.189Z,29.98
2023-01-23T11:11:25.033Z,31.02
2023-01-23T11:14:10.936Z,31.42
2023-01-23T11:16:38.778Z,31.48
2023-01-23T11:19:08.936Z,29.88
2023-01-23T11:22:07.066Z,30.05
2023-01-23T11:24:40.684Z,31.42
2023-01-23T11:27:29.983Z,30.40
2023-01-23T11:30:09.416Z,30.52
2023-01-23T11:32:46.867Z,29.50
2023-01-23T11:35:17.547Z,30.75
2023-01-23T11:37:45.159Z,29.67
2023-01-23T11:40:16.613Z,30.60
2023-01-23T11:42:45.124Z,30.52
2023-01-23T11:45:24.451Z,31.05
2023-01-23T11:47:59.767Z,31.23
2023-01-23T11:50:31.479Z,30.13
2023-01-23T11:53:09.363Z,30.13
2023-01-23T11:56:09.309Z,28.63
2023-01-23T11:58:49.160Z,27.95
2023-01-23T12:01:39.995Z,30.00
2023-01-23T12:04:39.008Z,29.65
2023-01-23T12:07:22.891Z,30.55
2023-01-23T12:09:56.231Z,30.17
2023-01-23T12:12:52.841Z,29.13
2023-01-23T12:15:35.637Z,28.85
2023-01-23T12:18:12.057Z,28.65
2023-01-23T12:20:54.844Z,28.33
2023-01-23T12:23:49.918Z,25.95
2023-01-23T12:26:19.895Z,26.85
2023-01-23T12:29:02.914Z,26.95
2023-01-23T12:31:42.815Z,26.42
2023-01-23T12:34:19.386Z,26.25
2023-01-23T12:37:30.329Z,25.38
2023-01-23T12:39:58.384Z,26.05
2023-01-23T12:42:44.315Z,25.08
2023-01-23T12:45:11.736Z,24.30
2023-01-23T12:48:01.665Z,23.90
2023-01-23T12:50:50.039Z,24.92
2023-01-23T12:53:21.319Z,24.05
2023-01-23T12:55:55.602Z,24.35
2023-01-23T12:58:24.192Z,25.73
2023-01-23T13:01:15.953Z,25.33
2023-01-23T13:04:05.930Z,25.02
2023-01-23T13:06:36.624Z,24.90
2023-01-23T13:09:18.408Z,25.35
2023-01-23T13:12:12.761Z,25.20
2023-01-23T13:15:13.060Z,26.13
2023-01-23T13:17:57.814Z,24.67
2023-01-23T13:20:54.833Z,24.38
2023-01-23T13:23:32.095Z,25.90
2023-01-23T13:26:13.260Z,24.15
2023-01-23T13:28:46.575Z,24.30
2023-01-23T13:31:37.513Z,23.38
2023-01-23T13:34:34.554Z,24.35
2023-01-23T13:37:53.510Z,23.98
2023-01-23T13:40:23.554Z,23.38
2023-01-23T13:42:51.319Z,23.98
2023-01-23T13:45:29.169Z,23.48
2023-01-23T14:20:30.345Z,23.23
2023-01-23T14:22:58.081Z,22.65
2023-01-23T14:25:26.138Z,22.77
2023-01-23T14:28:04.314Z,22.83
2023-01-23T14:30:32.271Z,23.05
2023-01-23T14:33:17.334Z,22.10
2023-01-23T14:35:45.080Z,22.27
2023-01-23T14:38:33.972Z,21.13
2023-01-23T14:41:08.564Z,21.88
2023-01-23T14:43:38.007Z,21.73
2023-01-23T14:46:15.063Z,21.88
2023-01-23T14:48:44.054Z,21.38
2023-01-23T14:51:22.825Z,21.77
2023-01-23T14:54:06.478Z,20.77
2023-01-23T14:56:39.569Z,21.65
2023-01-23T14:59:25.727Z,20.20
2023-01-23T15:01:59.959Z,21.40
2023-01-23T15:04:32.013Z,20.00
2023-01-23T15:07:04.906Z,20.23
2023-01-23T15:12:08.722Z,21.05
2023-01-23T15:14:40.552Z,21.67
2023-01-23T15:17:21.264Z,20.77
2023-01-23T15:19:56.514Z,21.80
2023-01-23T15:22:29.504Z,21.65
2023-01-23T15:24:57.360Z,21.23
2023-01-23T15:27:32.799Z,20.10
2023-01-23T15:30:37.433Z,20.90
2023-01-23T15:33:07.456Z,20.58
2023-01-23T15:35:37.058Z,20.85
2023-01-23T15:38:07.778Z,21.17
2023-01-23T15:40:38.448Z,20.80
2023-01-23T15:43:11.619Z,19.98
2023-01-23T15:45:39.145Z,21.23
2023-01-23T15:48:07.163Z,18.27
2023-01-23T15:50:34.769Z,19.00
2023-01-23T15:53:02.507Z,18.10
2023-01-23T15:55:30.476Z,18.83
2023-01-23T15:58:01.938Z,18.30
2023-01-23T16:00:34.545Z,18.17
2023-01-23T16:03:02.122Z,19.50
2023-01-23T16:05:32.749Z,17.58
2023-01-23T16:08:02.750Z,18.98
2023-01-23T16:10:36.968Z,18.85
2023-01-23T16:13:05.066Z,19.17
2023-01-23T16:15:34.497Z,18.30
2023-01-23T16:18:05.020Z,18.60
2023-01-23T16:20:38.887Z,19.08
2023-01-23T16:23:15.429Z,17.73
2023-01-23T16:25:45.369Z,18.90
2023-01-23T16:28:22.066Z,17.02
2023-01-23T16:30:51.802Z,17.40
2023-01-23T16:33:20.339Z,17.75
2023-01-23T16:35:49.088Z,18.17
2023-01-23T16:38:30.004Z,17.25
2023-01-23T16:40:59.866Z,16.25
2023-01-23T16:43:27.827Z,16.33
2023-01-23T16:45:56.751Z,16.90
2023-01-23T16:48:28.916Z,16.35
2023-01-23T16:51:21.748Z,16.70
2023-01-23T16:54:05.857Z,16.48
2023-01-23T16:56:38.539Z,15.55
2023-01-23T16:59:07.436Z,17.05
2023-01-23T17:01:37.919Z,16.38
2023-01-23T17:04:05.949Z,16.08
2023-01-23T17:06:36.500Z,16.00
2023-01-23T17:09:03.950Z,16.63
2023-01-23T17:11:38.067Z,17.90
2023-01-23T17:14:18.734Z,17.58
2023-01-23T17:16:46.671Z,17.85
2023-01-23T17:19:58.506Z,17.80
2023-01-23T17:22:30.725Z,19.02
2023-01-23T17:24:58.680Z,18.15
2023-01-23T17:27:26.159Z,17.77
2023-01-23T17:29:56.276Z,19.48
2023-01-23T17:32:35.856Z,18.17
2023-01-23T17:35:06.199Z,18.63
2023-01-23T17:37:34.974Z,18.67
2023-01-23T17:40:06.774Z,18.95
2023-01-23T17:42:34.360Z,19.98
2023-01-23T17:45:01.915Z,20.20
2023-01-23T17:47:29.814Z,20.33
2023-01-23T17:49:58.348Z,19.90
2023-01-23T17:52:27.049Z,20.13
2023-01-23T17:54:54.713Z,21.45
2023-01-23T17:57:22.753Z,21.20
2023-01-23T17:59:50.331Z,21.98
2023-01-23T18:02:27.900Z,22.67
2023-01-23T18:04:56.020Z,21.30
2023-01-23T18:07:23.940Z,23.15
2023-01-23T18:09:52.644Z,22.30
2023-01-23T18:12:52.436Z,23.33
2023-01-23T18:15:24.710Z,22.10
2023-01-23T18:18:03.200Z,22.20
2023-01-23T18:20:32.448Z,23.35
2023-01-23T18:23:00.996Z,22.90
2023-01-23T18:25:46.860Z,22.90
2023-01-23T18:28:22.371Z,23.13
2023-01-23T18:31:16.840Z,22.55
2023-01-23T18:33:49.697Z,22.58
2023-01-23T18:36:24.841Z,23.10
2023-01-23T18:39:00.481Z,22.70
2023-01-23T18:41:28.789Z,23.60
2023-01-23T18:44:16.921Z,24.80
2023-01-23T18:46:44.743Z,23.85
2023-01-23T18:49:18.932Z,23.98
2023-01-23T18:58:06.225Z,22.92
2023-01-23T19:00:50.676Z,23.88
2023-01-23T19:03:19.047Z,24.83
2023-01-23T19:05:47.384Z,25.98
2023-01-23T19:08:28.587Z,25.20
2023-01-23T19:11:16.278Z,26.08
2023-01-23T19:14:06.415Z,24.92
2023-01-23T19:16:34.911Z,26.73
2023-01-23T19:19:27.015Z,26.00
2023-01-23T19:21:54.969Z,27.45
2023-01-23T19:24:23.315Z,26.27
2023-01-23T19:26:58.365Z,26.30
2023-01-23T19:29:33.909Z,25.80
2023-01-23T19:32:05.900Z,26.90
2023-01-23T19:34:37.304Z,26.20
2023-01-23T19:37:08.412Z,24.88
2023-01-23T19:39:36.362Z,25.88
2023-01-23T19:44:45.249Z,24.92
2023-01-23T19:47:12.705Z,24.20
2023-01-23T19:49:40.772Z,25.52
2023-01-23T19:52:13.290Z,24.58
2023-01-23T19:55:22.826Z,26.00
2023-01-23T19:57:51.082Z,23.88
2023-01-23T20:00:19.367Z,26.10
2023-01-23T20:02:47.451Z,25.33
2023-01-23T20:05:15.630Z,26.17
2023-01-23T20:07:43.353Z,25.05
2023-01-23T20:10:11.938Z,26.70
2023-01-23T20:12:48.069Z,25.33
2023-01-23T20:15:17.980Z,25.80
2023-01-23T20:17:48.436Z,25.42
2023-01-23T20:20:17.103Z,25.45
2023-01-23T20:22:44.999Z,25.55
2023-01-23T20:25:14.843Z,24.42
2023-01-23T20:27:43.737Z,24.60
2023-01-23T20:30:15.444Z,25.23
2023-01-23T20:32:44.232Z,25.20
2023-01-23T20:35:14.108Z,26.20
2023-01-23T20:37:42.593Z,23.95
2023-01-23T20:40:19.207Z,24.05
2023-01-23T20:42:55.556Z,26.10
2023-01-23T20:45:29.000Z,25.67
2023-01-23T20:47:58.297Z,24.67
2023-01-23T20:50:26.126Z,26.10
2023-01-23T20:53:12.395Z,26.05
2023-01-23T20:55:39.983Z,26.60
2023-01-23T20:58:26.155Z,25.80
2023-01-23T21:00:54.080Z,27.42
2023-01-23T21:03:21.870Z,26.85
2023-01-23T21:05:49.420Z,26.35
2023-01-23T21:08:18.144Z,25.13
2023-01-23T21:10:45.970Z,27.13
2023-01-23T21:13:15.843Z,26.67
2023-01-23T21:15:43.531Z,26.05
2023-01-23T21:18:11.001Z,25.77
2023-01-23T21:20:40.072Z,26.52
2023-01-23T21:23:10.685Z,27.98
2023-01-23T21:25:38.569Z,26.50
2023-01-23T21:28:36.603Z,27.00
2023-01-23T21:31:23.139Z,26.77
2023-01-23T21:33:51.045Z,27.08
2023-01-23T21:36:27.642Z,26.45
2023-01-23T21:38:55.931Z,26.35
2023-01-23T21:41:24.232Z,26.00
2023-01-23T21:43:51.972Z,26.77
2023-01-23T21:46:19.670Z,26.67
2023-01-23T21:48:47.207Z,26.48
2023-01-23T21:51:16.712Z,26.27
2023-01-23T21:53:46.534Z,25.40
2023-01-23T21:56:16.441Z,27.98
2023-01-23T21:58:44.554Z,28.88
2023-01-23T22:01:33.226Z,27.75
2023-01-23T22:04:09.930Z,27.23
2023-01-23T22:06:39.707Z,27.20
2023-01-23T22:09:08.197Z,26.88
2023-01-23T22:11:36.838Z,27.55
2023-01-23T22:14:04.620Z,27.25
2023-01-23T22:16:47.330Z,28.05
2023-01-23T22:19:17.748Z,28.05
2023-01-23T22:21:46.686Z,28.98
2023-01-23T22:24:14.879Z,28.58
2023-01-23T22:26:43.155Z,27.52
2023-01-23T22:29:16.966Z,26.10
2023-01-23T22:31:44.556Z,27.92
2023-01-23T22:34:12.175Z,29.52
2023-01-23T22:36:39.972Z,28.65
2023-01-23T22:39:07.641Z,27.30
2023-01-23T22:41:35.413Z,26.15
2023-01-23T22:44:03.007Z,27.88
2023-01-23T22:46:32.394Z,28.15
2023-01-23T22:49:00.480Z,28.02
2023-01-23T22:51:28.993Z,28.30
2023-01-23T22:53:57.692Z,27.80
2023-01-23T22:56:26.286Z,27.15
2023-01-23T22:58:55.297Z,27.08
2023-01-23T23:01:24.063Z,28.63
2023-01-23T23:03:51.965Z,28.60
2023-01-23T23:06:19.848Z,27.60
2023-01-23T23:08:48.391Z,27.27
2023-01-23T23:11:18.660Z,28.70
2023-01-23T23:13:46.550Z,27.35
2023-01-23T23:16:17.972Z,28.15
2023-01-23T23:18:47.122Z,26.30
2023-01-23T23:21:16.746Z,28.40
2023-01-23T23:23:44.554Z,26.67
2023-01-23T23:26:12.867Z,27.60
2023-01-23T23:28:41.392Z,28.25
2023-01-23T23:31:09.934Z,28.83
2023-01-23T23:33:37.662Z,27.92
2023-01-23T23:36:05.844Z,27.75
2023-01-23T23:38:33.567Z,27.35
2023-01-23T23:41:07.152Z,26.98
2023-01-23T23:43:34.773Z,27.05
2023-01-23T23:46:04.893Z,28.33
2023-01-23T23:48:36.643Z,27.77
2023-01-23T23:51:06.922Z,28.30
2023-01-23T23:53:36.307Z,27.10
2023-01-23T23:56:04.762Z,28.52
2023-01-23T23:58:32.821Z,27.27
